createdAt,value
2022-11-15T08:22:30.930Z,168.75
2022-11-15T08:25:24.366Z,174.38
2022-11-15T08:28:17.789Z,180.00
2022-11-15T08:31:16.973Z,174.38
2022-11-15T08:32:50.194Z,163.12
2022-11-15T08:33:18.147Z,163.12
2022-11-15T08:34:18.100Z,168.75
2022-11-15T08:35:18.166Z,191.25
2022-11-15T08:36:18.315Z,185.62
2022-11-15T08:37:18.150Z,163.12
2022-11-15T08:38:18.139Z,163.12
2022-11-15T08:39:18.207Z,151.88
2022-11-15T08:40:18.305Z,146.25
2022-11-15T08:41:18.193Z,151.88
2022-11-15T08:42:19.980Z,157.50
2022-11-15T08:43:19.171Z,180.00
2022-11-15T08:44:18.221Z,174.38
2022-11-15T08:45:18.149Z,180.00
2022-11-15T08:46:18.197Z,185.62
2022-11-15T08:47:18.165Z,168.75
2022-11-15T08:48:18.092Z,168.75
2022-11-15T08:49:18.093Z,168.75
2022-11-15T08:50:18.126Z,163.12
2022-11-15T08:51:18.140Z,163.12
2022-11-15T08:52:18.161Z,157.50
2022-11-15T08:53:18.155Z,157.50
2022-11-15T08:54:18.081Z,157.50
2022-11-15T08:55:18.056Z,157.50
2022-11-15T08:56:17.995Z,151.88
2022-11-15T08:57:17.958Z,157.50
2022-11-15T08:58:18.014Z,157.50
2022-11-15T08:59:18.096Z,157.50
2022-11-15T09:00:17.937Z,163.12
2022-11-15T09:01:18.681Z,163.12
2022-11-15T09:02:18.934Z,185.62
2022-11-15T09:03:17.927Z,185.62
2022-11-15T09:04:18.007Z,185.62
2022-11-15T09:05:17.997Z,196.88
2022-11-15T09:06:17.987Z,202.50
2022-11-15T09:07:18.027Z,202.50
2022-11-15T09:08:47.041Z,202.50
2022-11-15T09:09:19.941Z,202.50
2022-11-15T09:10:17.995Z,202.50
2022-11-15T09:11:17.949Z,202.50
2022-11-15T09:12:17.954Z,202.50
2022-11-15T09:13:17.958Z,208.12
2022-11-15T09:14:18.025Z,208.12
2022-11-15T09:15:17.896Z,208.12
2022-11-15T09:16:17.929Z,208.12
2022-11-15T09:17:23.194Z,208.12
2022-11-15T09:18:22.240Z,208.12
2022-11-15T09:19:17.948Z,202.50
2022-11-15T09:20:17.989Z,202.50
2022-11-15T09:21:17.780Z,208.12
2022-11-15T09:22:17.756Z,213.75
2022-11-15T09:23:17.850Z,185.62
2022-11-15T09:24:17.933Z,213.75
2022-11-15T09:25:17.912Z,208.12
2022-11-15T09:26:17.998Z,208.12
2022-11-15T09:27:17.841Z,185.62
2022-11-15T09:28:17.852Z,185.62
2022-11-15T09:29:17.848Z,191.25
2022-11-15T09:30:17.835Z,191.25
2022-11-15T09:31:21.025Z,185.62
2022-11-15T09:32:18.873Z,185.62
2022-11-15T09:33:17.773Z,180.00
2022-11-15T09:34:17.830Z,174.38
2022-11-15T09:35:17.795Z,174.38
2022-11-15T09:36:17.835Z,180.00
2022-11-15T09:37:17.763Z,185.62
2022-11-15T09:38:17.814Z,202.50
2022-11-15T09:39:17.689Z,213.75
2022-11-15T09:40:17.669Z,208.12
2022-11-15T09:41:17.679Z,202.50
2022-11-15T09:42:17.809Z,202.50
2022-11-15T09:43:17.652Z,202.50
2022-11-15T09:44:21.170Z,196.88
2022-11-15T09:45:19.662Z,196.88
2022-11-15T09:46:17.735Z,196.88
2022-11-15T09:47:17.818Z,196.88
2022-11-15T09:48:17.682Z,196.88
2022-11-15T09:49:17.765Z,191.25
2022-11-15T09:50:17.661Z,191.25
2022-11-15T09:51:17.839Z,191.25
2022-11-15T09:52:17.699Z,202.50
2022-11-15T09:53:17.727Z,208.12
2022-11-15T09:55:19.622Z,208.12
2022-11-15T09:56:17.704Z,208.12
2022-11-15T09:57:17.625Z,202.50
2022-11-15T09:58:17.696Z,196.88
2022-11-15T09:59:17.700Z,191.25
2022-11-15T10:00:44.777Z,191.25
2022-11-15T10:01:19.543Z,202.50
2022-11-15T10:02:17.526Z,213.75
2022-11-15T10:03:17.527Z,225.00
2022-11-15T10:04:17.576Z,225.00
2022-11-15T10:05:17.505Z,225.00
2022-11-15T10:06:17.488Z,236.25
2022-11-15T10:07:17.583Z,213.75
2022-11-15T10:08:17.555Z,236.25
2022-11-15T10:09:22.565Z,241.88
2022-11-15T10:10:19.567Z,241.88
2022-11-15T10:12:19.452Z,236.25
2022-11-15T10:13:17.578Z,253.12
2022-11-15T10:14:17.724Z,264.38
2022-11-15T10:15:17.507Z,275.62
2022-11-15T10:16:17.487Z,275.62
2022-11-15T10:17:17.497Z,275.62
2022-11-15T10:18:17.500Z,258.75
2022-11-15T10:19:17.483Z,230.62
2022-11-15T10:20:17.497Z,230.62
2022-11-15T10:21:17.480Z,225.00
2022-11-15T10:22:17.499Z,241.88
2022-11-15T10:23:18.467Z,225.00
2022-11-15T10:24:17.471Z,225.00
2022-11-15T10:25:17.494Z,219.38
2022-11-15T10:26:17.429Z,219.38
2022-11-15T10:27:17.460Z,225.00
2022-11-15T10:28:17.499Z,230.62
2022-11-15T10:29:17.328Z,236.25
2022-11-15T10:30:17.346Z,208.12
2022-11-15T10:31:17.478Z,208.12
2022-11-15T10:32:17.377Z,202.50
2022-11-15T10:33:17.324Z,208.12
2022-11-15T10:34:17.370Z,219.38
2022-11-15T10:35:17.526Z,225.00
2022-11-15T10:36:17.421Z,236.25
2022-11-15T10:37:17.466Z,247.50
2022-11-15T10:38:17.492Z,247.50
2022-11-15T10:39:17.675Z,253.12
2022-11-15T10:40:17.373Z,258.75
2022-11-15T10:41:17.378Z,258.75
2022-11-15T10:42:18.051Z,247.50
2022-11-15T10:43:18.483Z,230.62
2022-11-15T10:44:17.340Z,208.12
2022-11-15T10:45:17.344Z,185.62
2022-11-15T10:46:44.477Z,174.38
2022-11-15T10:47:19.295Z,163.12
2022-11-15T10:48:17.319Z,157.50
2022-11-15T10:49:17.332Z,157.50
2022-11-15T10:50:17.304Z,157.50
2022-11-15T10:51:17.227Z,163.12
2022-11-15T10:52:17.216Z,168.75
2022-11-15T10:53:17.178Z,163.12
2022-11-15T10:54:21.003Z,163.12
2022-11-15T10:55:18.148Z,168.75
2022-11-15T10:56:17.147Z,185.62
2022-11-15T10:57:17.282Z,202.50
2022-11-15T10:58:17.286Z,213.75
2022-11-15T10:59:17.259Z,213.75
2022-11-15T11:00:17.320Z,213.75
2022-11-15T11:01:17.309Z,208.12
2022-11-15T11:02:17.111Z,202.50
2022-11-15T11:03:17.428Z,196.88
2022-11-15T11:04:17.237Z,196.88
2022-11-15T11:05:17.180Z,191.25
2022-11-15T11:06:17.320Z,185.62
2022-11-15T11:07:17.213Z,180.00
2022-11-15T11:08:17.172Z,185.62
2022-11-15T11:09:17.167Z,191.25
2022-11-15T11:10:44.237Z,202.50
2022-11-15T11:11:19.048Z,213.75
2022-11-15T11:12:17.099Z,219.38
2022-11-15T11:13:17.148Z,225.00
2022-11-15T11:14:17.147Z,219.38
2022-11-15T11:15:17.090Z,213.75
2022-11-15T11:16:17.208Z,213.75
2022-11-15T11:17:17.084Z,213.75
2022-11-15T11:18:16.984Z,208.12
2022-11-15T11:19:17.050Z,202.50
2022-11-15T11:20:17.052Z,202.50
2022-11-15T11:21:16.986Z,208.12
2022-11-15T11:22:17.182Z,225.00
2022-11-15T11:23:17.018Z,230.62
2022-11-15T11:24:17.073Z,236.25
2022-11-15T11:25:17.100Z,236.25
2022-11-15T11:26:16.999Z,241.88
2022-11-15T11:27:17.041Z,247.50
2022-11-15T11:28:17.030Z,253.12
2022-11-15T11:29:16.995Z,258.75
2022-11-15T11:30:18.098Z,264.38
2022-11-15T11:31:17.020Z,258.75
2022-11-15T11:32:17.073Z,258.75
2022-11-15T11:33:17.023Z,258.75
2022-11-15T11:34:17.044Z,264.38
2022-11-15T11:35:17.139Z,258.75
2022-11-15T11:37:24.476Z,264.38
2022-11-15T11:38:25.832Z,264.38
2022-11-15T11:39:25.861Z,270.00
2022-11-15T11:40:25.872Z,275.62
2022-11-15T11:41:25.698Z,281.25
2022-11-15T11:42:25.640Z,281.25
2022-11-15T11:43:25.616Z,286.88
2022-11-15T11:44:25.620Z,281.25
2022-11-15T11:45:25.653Z,275.62
2022-11-15T11:46:25.628Z,275.62
2022-11-15T11:47:25.747Z,275.62
2022-11-15T11:48:25.700Z,286.88
2022-11-15T11:49:25.575Z,281.25
2022-11-15T11:50:25.734Z,275.62
2022-11-15T11:51:25.671Z,275.62
2022-11-15T11:52:25.649Z,270.00
2022-11-15T11:53:25.703Z,270.00
2022-11-15T11:54:25.745Z,270.00
2022-11-15T11:55:25.669Z,264.38
2022-11-15T11:56:25.738Z,270.00
2022-11-15T11:57:25.630Z,275.62
2022-11-15T11:58:25.625Z,281.25
2022-11-15T11:59:25.749Z,275.62
2022-11-15T12:00:25.618Z,275.62
2022-11-15T12:01:25.699Z,275.62
2022-11-15T12:02:25.576Z,270.00
2022-11-15T12:03:25.678Z,264.38
2022-11-15T12:04:25.607Z,258.75
2022-11-15T12:05:25.669Z,258.75
2022-11-15T12:06:25.588Z,264.38
2022-11-15T12:07:25.852Z,264.38
2022-11-15T12:08:25.591Z,264.38
2022-11-15T12:09:25.495Z,264.38
2022-11-15T12:10:25.619Z,258.75
2022-11-15T12:11:25.506Z,258.75
2022-11-15T12:12:25.784Z,253.12
2022-11-15T12:13:25.449Z,253.12
2022-11-15T12:14:25.608Z,258.75
2022-11-15T12:15:25.419Z,264.38
2022-11-15T12:16:25.478Z,270.00
2022-11-15T12:17:25.379Z,275.62
2022-11-15T12:18:25.535Z,286.88
2022-11-15T12:19:25.620Z,286.88
2022-11-15T12:20:25.469Z,286.88
2022-11-15T12:21:28.511Z,286.88
2022-11-15T12:22:26.413Z,286.88
2022-11-15T12:23:25.730Z,286.88
2022-11-15T12:24:25.782Z,286.88
2022-11-15T12:25:25.415Z,286.88
2022-11-15T12:26:25.443Z,275.62
2022-11-15T12:27:26.848Z,281.25
2022-11-15T12:28:26.490Z,275.62
2022-11-15T12:29:25.651Z,270.00
2022-11-15T12:30:25.407Z,275.62
2022-11-15T12:31:25.407Z,275.62
2022-11-15T12:32:25.413Z,275.62
2022-11-15T12:33:25.333Z,286.88
2022-11-15T12:34:25.436Z,292.50
2022-11-15T12:35:25.440Z,286.88
2022-11-15T12:36:25.400Z,286.88
2022-11-15T12:37:25.322Z,292.50
2022-11-15T12:38:25.676Z,292.50
2022-11-15T12:39:25.298Z,286.88
2022-11-15T12:40:25.224Z,286.88
2022-11-15T12:41:25.319Z,286.88
2022-11-15T12:42:25.214Z,315.00
2022-11-15T12:43:25.187Z,303.75
2022-11-15T12:44:25.215Z,298.12
2022-11-15T12:45:25.242Z,292.50
2022-11-15T12:46:25.280Z,286.88
2022-11-15T12:47:25.267Z,286.88
2022-11-15T12:48:25.281Z,286.88
2022-11-15T12:49:25.288Z,286.88
2022-11-15T12:50:25.356Z,309.38
2022-11-15T12:51:25.253Z,331.88
2022-11-15T12:52:25.252Z,331.88
2022-11-15T12:53:25.180Z,337.50
2022-11-15T12:54:25.232Z,326.25
2022-11-15T12:55:25.188Z,309.38
2022-11-15T12:56:26.292Z,315.00
2022-11-15T12:57:25.185Z,331.88
2022-11-15T12:58:25.135Z,320.62
2022-11-15T12:59:25.174Z,320.62
2022-11-15T13:00:25.500Z,343.12
2022-11-15T13:01:26.171Z,315.00
2022-11-15T13:02:25.073Z,303.75
2022-11-15T13:03:25.138Z,286.88
2022-11-15T13:04:25.069Z,286.88
2022-11-15T13:05:25.180Z,292.50
2022-11-15T13:06:25.067Z,309.38
2022-11-15T13:07:25.264Z,326.25
2022-11-15T13:08:25.046Z,326.25
2022-11-15T13:09:25.081Z,337.50
2022-11-15T13:10:27.946Z,354.38
2022-11-15T13:11:26.136Z,478.12
2022-11-15T13:12:25.720Z,337.50
2022-11-15T13:13:25.116Z,315.00
2022-11-15T13:14:25.084Z,286.88
2022-11-15T13:15:25.552Z,281.25
2022-11-15T13:16:25.047Z,292.50
2022-11-15T13:17:25.019Z,292.50
2022-11-15T13:18:25.134Z,270.00
2022-11-15T13:19:25.057Z,270.00
2022-11-15T13:20:24.996Z,281.25
2022-11-15T13:21:24.936Z,286.88
2022-11-15T13:22:24.900Z,292.50
2022-11-15T13:23:24.948Z,281.25
2022-11-15T13:24:24.925Z,281.25
2022-11-15T13:25:24.870Z,286.88
2022-11-15T13:26:24.865Z,292.50
2022-11-15T13:27:24.920Z,286.88
2022-11-15T13:28:24.870Z,275.62
2022-11-15T13:29:24.904Z,258.75
2022-11-15T13:30:24.930Z,236.25
2022-11-15T13:31:24.941Z,213.75
2022-11-15T13:32:24.962Z,196.88
2022-11-15T13:33:24.933Z,180.00
2022-11-15T13:34:49.817Z,168.75
2022-11-15T13:35:26.837Z,163.12
2022-11-15T13:36:24.971Z,151.88
2022-11-15T13:37:24.858Z,146.25
2022-11-15T13:38:24.879Z,140.62
2022-11-15T13:39:24.811Z,151.88
2022-11-15T13:40:24.935Z,163.12
2022-11-15T13:41:24.833Z,180.00
2022-11-15T13:42:24.874Z,219.38
2022-11-15T13:43:24.779Z,247.50
2022-11-15T13:44:24.742Z,315.00
2022-11-15T13:45:24.742Z,376.88
2022-11-15T13:46:24.740Z,568.12
2022-11-15T13:47:24.701Z,416.25
2022-11-15T13:48:24.775Z,388.12
2022-11-15T13:49:24.695Z,354.38
2022-11-15T13:50:24.674Z,315.00
2022-11-15T13:51:24.801Z,281.25
2022-11-15T13:52:24.660Z,253.12
2022-11-15T13:53:24.840Z,241.88
2022-11-15T13:54:24.819Z,219.38
2022-11-15T13:55:24.794Z,202.50
2022-11-15T13:56:24.752Z,185.62
2022-11-15T13:57:24.803Z,168.75
2022-11-15T13:58:24.774Z,157.50
2022-11-15T13:59:24.699Z,151.88
2022-11-15T14:00:25.740Z,140.62
2022-11-15T14:01:24.754Z,129.38
2022-11-15T14:02:24.696Z,123.75
2022-11-15T14:03:24.734Z,129.38
2022-11-15T14:04:24.661Z,129.38
2022-11-15T14:05:24.728Z,123.75
2022-11-15T14:06:24.683Z,112.50
2022-11-15T14:07:24.774Z,101.25
2022-11-15T14:08:24.668Z,101.25
2022-11-15T14:09:24.620Z,90.00
2022-11-15T14:10:24.541Z,84.38
2022-11-15T14:11:24.618Z,84.38
2022-11-15T14:12:24.530Z,78.75
2022-11-15T14:13:24.976Z,73.12
2022-11-15T14:14:24.635Z,73.12
2022-11-15T14:15:24.629Z,73.12
2022-11-15T14:16:24.660Z,67.50
2022-11-15T14:17:24.715Z,67.50
2022-11-15T14:18:24.707Z,61.88
2022-11-15T14:19:24.579Z,61.88
2022-11-15T14:20:24.634Z,61.88
2022-11-15T14:21:24.586Z,61.88
2022-11-15T14:22:24.581Z,56.25
2022-11-15T14:23:25.244Z,56.25
2022-11-15T14:24:25.186Z,56.25
2022-11-15T14:25:24.548Z,56.25
2022-11-15T14:26:24.524Z,56.25
2022-11-15T14:27:24.457Z,50.62
2022-11-15T14:28:24.449Z,50.62
2022-11-15T14:29:24.587Z,45.00
2022-11-15T14:30:24.395Z,45.00
2022-11-15T14:31:24.384Z,45.00
2022-11-15T14:32:24.421Z,45.00
2022-11-15T14:33:24.388Z,45.00
2022-11-15T14:34:24.445Z,45.00
2022-11-15T14:35:24.468Z,45.00
2022-11-15T14:36:24.524Z,45.00
2022-11-15T14:37:24.544Z,45.00
2022-11-15T14:38:24.526Z,50.62
2022-11-15T14:39:24.619Z,50.62
2022-11-15T14:40:24.399Z,50.62
2022-11-15T14:41:24.486Z,45.00
2022-11-15T14:42:24.436Z,45.00
2022-11-15T14:43:24.503Z,45.00
2022-11-15T14:44:24.422Z,45.00
2022-11-15T14:45:24.429Z,50.62
2022-11-15T14:46:24.360Z,50.62
2022-11-15T14:47:24.467Z,50.62
2022-11-15T14:48:24.363Z,45.00
2022-11-15T14:49:24.275Z,45.00
2022-11-15T14:50:24.560Z,39.38
2022-11-15T14:51:24.354Z,39.38
2022-11-15T14:52:30.391Z,33.75
2022-11-15T14:53:26.315Z,33.75
2022-11-15T14:54:24.233Z,33.75
2022-11-15T14:55:24.360Z,33.75
2022-11-15T14:56:24.384Z,39.38
2022-11-15T14:57:24.494Z,39.38
2022-11-15T14:58:24.384Z,39.38
2022-11-15T14:59:24.272Z,45.00
2022-11-15T15:00:24.320Z,45.00
2022-11-15T15:01:24.334Z,50.62
2022-11-15T15:02:24.203Z,45.00
2022-11-15T15:03:24.359Z,39.38
2022-11-15T15:04:24.555Z,33.75
2022-11-15T15:05:24.351Z,33.75
2022-11-15T15:06:24.242Z,28.12
2022-11-15T15:07:24.504Z,28.12
2022-11-15T15:08:24.382Z,28.12
2022-11-15T15:09:24.157Z,22.50
2022-11-15T15:10:39.549Z,22.50
2022-11-15T15:11:26.213Z,22.50
2022-11-15T15:12:24.231Z,22.50
2022-11-15T15:13:24.252Z,16.88
2022-11-15T15:14:24.307Z,16.88
2022-11-15T15:15:24.390Z,16.88
2022-11-15T15:16:24.163Z,16.88
2022-11-15T15:17:24.400Z,11.25
2022-11-15T15:18:24.157Z,11.25
2022-11-15T15:19:26.294Z,11.25
2022-11-15T15:20:25.137Z,11.25
2022-11-15T15:21:24.143Z,11.25
2022-11-15T15:22:24.382Z,11.25
2022-11-15T15:23:24.185Z,11.25
2022-11-15T15:24:24.157Z,11.25
2022-11-15T15:25:24.173Z,11.25
2022-11-15T15:26:24.182Z,5.62
2022-11-15T15:27:24.143Z,5.62
2022-11-15T15:28:24.178Z,5.62
2022-11-15T15:29:24.080Z,5.62
2022-11-15T15:30:24.091Z,5.62
2022-11-15T15:31:24.031Z,0.00
2022-11-15T15:32:24.091Z,0.00
2022-11-15T15:33:24.011Z,0.00
2022-11-15T15:34:24.129Z,0.00
2022-11-15T15:35:23.950Z,0.00
2022-11-15T15:36:23.938Z,0.00
2022-11-15T15:37:23.980Z,0.00
2022-11-15T15:38:23.891Z,0.00
2022-11-15T15:39:23.977Z,0.00
2022-11-15T15:40:23.859Z,0.00
2022-11-15T15:41:23.879Z,0.00
2022-11-15T15:42:23.935Z,0.00
2022-11-15T15:43:24.159Z,0.00
2022-11-15T15:44:23.934Z,0.00
2022-11-15T15:45:25.133Z,0.00
2022-11-15T15:46:23.993Z,0.00
2022-11-15T15:47:24.002Z,0.00
2022-11-15T15:48:24.236Z,0.00
2022-11-15T15:49:23.924Z,0.00
2022-11-15T15:50:24.015Z,0.00
2022-11-15T15:51:24.057Z,0.00
2022-11-15T15:52:26.339Z,0.00
2022-11-15T15:53:23.955Z,0.00
2022-11-15T15:54:23.867Z,0.00
2022-11-15T15:55:23.916Z,0.00
2022-11-15T15:56:24.060Z,0.00
2022-11-15T15:57:23.946Z,0.00
2022-11-15T15:58:24.071Z,0.00
2022-11-15T15:59:23.775Z,0.00
2022-11-15T16:00:23.782Z,0.00
2022-11-15T16:01:23.947Z,0.00
2022-11-15T16:02:24.075Z,0.00
2022-11-15T16:03:23.940Z,0.00
2022-11-15T16:04:23.801Z,0.00
2022-11-15T16:05:23.932Z,0.00
2022-11-15T16:06:24.022Z,0.00
2022-11-15T16:07:24.076Z,0.00
2022-11-15T16:08:23.892Z,0.00
2022-11-15T16:09:24.833Z,0.00
2022-11-15T16:10:23.838Z,0.00
2022-11-15T16:11:23.922Z,0.00
2022-11-15T16:12:23.863Z,0.00
2022-11-15T16:13:24.218Z,0.00
2022-11-15T16:14:23.787Z,0.00
2022-11-15T16:15:23.723Z,0.00
2022-11-15T16:16:24.042Z,0.00
2022-11-15T16:17:24.533Z,0.00
2022-11-15T16:18:23.661Z,0.00
2022-11-15T16:19:24.079Z,0.00
2022-11-15T16:20:24.050Z,0.00
2022-11-15T16:21:23.849Z,0.00
2022-11-15T16:22:23.920Z,0.00
2022-11-15T16:23:23.985Z,0.00
2022-11-15T16:24:23.961Z,0.00
2022-11-15T16:25:23.734Z,0.00
2022-11-15T16:26:23.704Z,0.00
2022-11-15T16:27:23.691Z,0.00
2022-11-15T16:28:23.693Z,0.00
2022-11-15T16:29:23.708Z,0.00
2022-11-15T16:30:23.714Z,0.00
2022-11-15T16:31:23.675Z,0.00
2022-11-15T16:32:23.552Z,0.00
2022-11-15T16:33:24.500Z,0.00
2022-11-15T16:34:23.776Z,0.00
2022-11-15T16:35:23.918Z,0.00
2022-11-15T16:36:29.515Z,0.00
2022-11-15T16:37:26.052Z,0.00
2022-11-15T16:38:23.689Z,0.00
2022-11-15T16:39:23.981Z,0.00
2022-11-15T16:40:24.000Z,0.00
2022-11-15T16:41:24.069Z,0.00
2022-11-15T16:42:24.113Z,0.00
2022-11-15T16:43:25.210Z,0.00
2022-11-15T16:44:24.250Z,0.00
2022-11-15T16:45:24.155Z,0.00
2022-11-15T16:46:23.640Z,0.00
2022-11-15T16:47:23.964Z,0.00
2022-11-15T16:48:23.925Z,0.00
2022-11-15T16:49:23.849Z,0.00
2022-11-15T16:50:24.226Z,0.00
2022-11-15T16:51:23.928Z,0.00
2022-11-15T16:52:23.567Z,0.00
2022-11-15T16:53:23.671Z,0.00
2022-11-15T16:54:23.681Z,0.00
2022-11-15T16:55:23.969Z,0.00
2022-11-15T16:56:23.979Z,0.00
2022-11-15T16:57:24.995Z,0.00
2022-11-15T16:58:23.562Z,0.00
2022-11-15T16:59:23.562Z,0.00
2022-11-15T17:00:23.506Z,0.00
2022-11-15T17:01:23.563Z,0.00
2022-11-15T17:02:23.548Z,0.00
2022-11-15T17:03:23.420Z,0.00
2022-11-15T17:04:23.415Z,0.00
2022-11-15T17:05:24.101Z,0.00
2022-11-15T17:06:24.091Z,0.00
2022-11-15T17:07:23.888Z,0.00
2022-11-15T17:08:23.952Z,0.00
2022-11-15T17:09:23.833Z,0.00
2022-11-15T17:10:25.009Z,0.00
2022-11-15T17:11:23.735Z,0.00
2022-11-15T17:12:23.763Z,0.00
2022-11-15T17:13:24.029Z,0.00
2022-11-15T17:14:25.953Z,0.00
2022-11-15T17:15:24.091Z,0.00
2022-11-15T17:16:23.978Z,0.00
2022-11-15T17:17:24.106Z,0.00
2022-11-15T17:18:24.643Z,0.00
2022-11-15T17:19:24.045Z,0.00
2022-11-15T17:20:23.489Z,0.00
2022-11-15T17:21:23.570Z,0.00
2022-11-15T17:22:23.725Z,0.00
2022-11-15T17:23:23.392Z,0.00
2022-11-15T17:24:23.960Z,0.00
2022-11-15T17:25:23.842Z,0.00
2022-11-15T17:26:30.381Z,0.00
2022-11-15T17:27:25.699Z,0.00
2022-11-15T17:28:23.591Z,0.00
2022-11-15T17:29:23.529Z,0.00
2022-11-15T17:30:23.754Z,0.00
2022-11-15T17:31:23.731Z,0.00
2022-11-15T17:32:23.706Z,0.00
2022-11-15T17:33:23.214Z,0.00
2022-11-15T17:34:23.124Z,0.00
2022-11-15T17:35:23.657Z,0.00
2022-11-15T17:36:23.378Z,0.00
2022-11-15T17:37:23.019Z,0.00
2022-11-15T17:38:23.316Z,0.00
2022-11-15T17:39:23.836Z,0.00
2022-11-15T17:40:23.216Z,0.00
2022-11-15T17:41:23.620Z,0.00
2022-11-15T17:42:23.616Z,0.00
2022-11-15T17:43:23.131Z,0.00
2022-11-15T17:44:23.220Z,0.00
2022-11-15T17:45:23.534Z,0.00
2022-11-15T17:46:23.503Z,0.00
2022-11-15T17:47:23.323Z,0.00
2022-11-15T17:48:23.431Z,0.00
2022-11-15T17:49:23.664Z,0.00
2022-11-15T17:50:24.104Z,0.00
2022-11-15T17:51:23.588Z,0.00
2022-11-15T17:52:23.783Z,0.00
2022-11-15T17:53:23.343Z,0.00
2022-11-15T17:54:23.490Z,0.00
2022-11-15T17:55:23.391Z,0.00
2022-11-15T17:56:23.861Z,0.00
2022-11-15T17:57:23.142Z,0.00
2022-11-15T17:58:23.683Z,0.00
2022-11-15T17:59:24.280Z,0.00
2022-11-15T18:00:23.252Z,0.00
2022-11-15T18:01:23.108Z,0.00
2022-11-15T18:02:23.187Z,0.00
2022-11-15T18:03:23.057Z,0.00
2022-11-15T18:04:23.415Z,0.00
2022-11-15T18:05:23.019Z,0.00
2022-11-15T18:06:23.428Z,0.00
2022-11-15T18:07:22.941Z,0.00
2022-11-15T18:08:23.204Z,0.00
2022-11-15T18:09:22.948Z,0.00
2022-11-15T18:10:23.395Z,0.00
2022-11-15T18:11:23.272Z,0.00
2022-11-15T18:12:26.728Z,0.00
2022-11-15T18:13:24.310Z,0.00
2022-11-15T18:14:23.106Z,0.00
2022-11-15T18:15:23.396Z,0.00
2022-11-15T18:16:23.622Z,0.00
2022-11-15T18:17:23.206Z,0.00
2022-11-15T18:18:22.969Z,0.00
2022-11-15T18:19:23.342Z,0.00
2022-11-15T18:20:29.102Z,0.00
2022-11-15T18:21:24.385Z,0.00
2022-11-15T18:22:22.875Z,0.00
2022-11-15T18:23:23.023Z,0.00
2022-11-15T18:24:23.071Z,0.00
2022-11-15T18:25:22.881Z,0.00
2022-11-15T18:26:26.766Z,0.00
2022-11-15T18:27:23.962Z,0.00
2022-11-15T18:28:23.264Z,0.00
2022-11-15T18:29:22.941Z,0.00
2022-11-15T18:30:23.018Z,0.00
2022-11-15T18:31:23.146Z,0.00
2022-11-15T18:32:22.823Z,0.00
2022-11-15T18:33:22.807Z,0.00
2022-11-15T18:34:22.995Z,0.00
2022-11-15T18:35:22.838Z,0.00
2022-11-15T18:36:22.835Z,0.00
2022-11-15T18:37:22.934Z,0.00
2022-11-15T18:38:22.946Z,0.00
2022-11-15T18:39:23.314Z,0.00
2022-11-15T18:40:22.962Z,0.00
2022-11-15T18:41:23.213Z,0.00
2022-11-15T18:42:22.590Z,0.00
2022-11-15T18:43:22.768Z,0.00
2022-11-15T18:44:22.910Z,0.00
2022-11-15T18:45:24.233Z,0.00
2022-11-15T18:46:24.136Z,0.00
2022-11-15T18:47:22.816Z,0.00
2022-11-15T18:48:23.003Z,0.00
2022-11-15T18:49:22.709Z,0.00
2022-11-15T18:50:23.093Z,0.00
2022-11-15T18:51:23.124Z,0.00
2022-11-15T18:52:23.034Z,0.00
2022-11-15T18:53:22.684Z,0.00
2022-11-15T18:54:28.100Z,0.00
2022-11-15T18:55:25.303Z,0.00
2022-11-15T18:56:22.844Z,0.00
2022-11-15T18:57:23.120Z,0.00
2022-11-15T18:58:22.953Z,0.00
2022-11-15T18:59:22.581Z,0.00
2022-11-15T19:00:22.568Z,0.00
2022-11-15T19:01:22.782Z,0.00
2022-11-15T19:02:22.543Z,0.00
2022-11-15T19:03:23.688Z,0.00
2022-11-15T19:04:23.490Z,0.00
2022-11-15T19:05:22.852Z,0.00
2022-11-15T19:06:22.596Z,0.00
2022-11-15T19:07:22.704Z,0.00
2022-11-15T19:08:23.188Z,0.00
2022-11-15T19:09:22.490Z,0.00
2022-11-15T19:10:22.879Z,0.00
2022-11-15T19:11:22.520Z,0.00
2022-11-15T19:12:22.899Z,0.00
2022-11-15T19:13:22.781Z,0.00
2022-11-15T19:14:22.627Z,0.00
2022-11-15T19:15:22.982Z,0.00
2022-11-15T19:16:22.891Z,0.00
2022-11-15T19:17:23.085Z,0.00
2022-11-15T19:18:23.075Z,0.00
2022-11-15T19:19:22.349Z,0.00
2022-11-15T19:20:22.676Z,0.00
2022-11-15T19:21:22.711Z,0.00
2022-11-15T19:22:22.784Z,0.00
2022-11-15T19:23:22.361Z,0.00
2022-11-15T19:24:22.523Z,0.00
2022-11-15T19:25:22.962Z,0.00
2022-11-15T19:26:22.524Z,0.00
2022-11-15T19:27:23.019Z,0.00
2022-11-15T19:28:22.753Z,0.00
2022-11-15T19:29:23.379Z,0.00
2022-11-15T19:30:22.802Z,0.00
2022-11-15T19:31:22.534Z,0.00
2022-11-15T19:32:22.404Z,0.00
2022-11-15T19:33:27.532Z,0.00
2022-11-15T19:34:24.538Z,0.00
2022-11-15T19:35:23.240Z,0.00
2022-11-15T19:36:22.368Z,0.00
2022-11-15T19:37:22.340Z,0.00
2022-11-15T19:38:22.691Z,0.00
2022-11-15T19:39:22.963Z,0.00
2022-11-15T19:40:22.205Z,0.00
2022-11-15T19:41:22.272Z,0.00
2022-11-15T19:42:22.436Z,0.00
2022-11-15T19:43:22.447Z,0.00
2022-11-15T19:44:22.728Z,0.00
2022-11-15T19:45:22.637Z,0.00
2022-11-15T19:46:22.277Z,0.00
2022-11-15T19:47:22.590Z,0.00
2022-11-15T19:48:22.724Z,0.00
2022-11-15T19:49:22.782Z,0.00
2022-11-15T19:50:22.821Z,0.00
2022-11-15T19:51:22.604Z,0.00
2022-11-15T19:52:22.204Z,0.00
2022-11-15T19:53:22.359Z,0.00
2022-11-15T19:54:23.705Z,0.00
2022-11-15T19:55:22.217Z,0.00
2022-11-15T19:56:22.298Z,0.00
2022-11-15T19:57:22.645Z,0.00
2022-11-15T19:58:22.301Z,0.00
2022-11-15T19:59:22.322Z,0.00
2022-11-15T20:00:22.867Z,0.00
2022-11-15T20:01:22.470Z,0.00
2022-11-15T20:02:22.619Z,0.00
2022-11-15T20:03:22.297Z,0.00
2022-11-15T20:04:22.255Z,0.00
2022-11-15T20:05:22.192Z,0.00
2022-11-15T20:06:22.389Z,0.00
2022-11-15T20:07:22.132Z,0.00
2022-11-15T20:08:22.328Z,0.00
2022-11-15T20:09:22.266Z,0.00
2022-11-15T20:10:22.348Z,0.00
2022-11-15T20:11:22.541Z,0.00
2022-11-15T20:12:22.749Z,0.00
2022-11-15T20:13:22.161Z,0.00
2022-11-15T20:14:22.474Z,0.00
2022-11-15T20:15:22.253Z,0.00
2022-11-15T20:16:22.118Z,0.00
2022-11-15T20:17:22.279Z,0.00
2022-11-15T20:18:22.957Z,0.00
2022-11-15T20:19:22.247Z,0.00
2022-11-15T20:20:22.310Z,0.00
2022-11-15T20:21:22.108Z,0.00
2022-11-15T20:22:22.213Z,0.00
2022-11-15T20:23:22.321Z,0.00
2022-11-15T20:24:22.426Z,0.00
2022-11-15T20:25:22.138Z,0.00
2022-11-15T20:26:22.100Z,0.00
2022-11-15T20:27:22.240Z,0.00
2022-11-15T20:28:22.735Z,0.00
2022-11-15T20:29:22.228Z,0.00
2022-11-15T20:30:22.019Z,0.00
2022-11-15T20:31:22.650Z,0.00
2022-11-15T20:32:21.936Z,0.00
2022-11-15T20:33:22.081Z,0.00
2022-11-15T20:34:22.137Z,0.00
2022-11-15T20:35:22.616Z,0.00
2022-11-15T20:36:23.561Z,0.00
2022-11-15T20:37:22.078Z,0.00
2022-11-15T20:38:23.364Z,0.00
2022-11-15T20:39:22.360Z,0.00
2022-11-15T20:40:21.781Z,0.00
2022-11-15T20:41:22.418Z,0.00
2022-11-15T20:42:22.252Z,0.00
2022-11-15T20:43:22.239Z,0.00
2022-11-15T20:44:21.963Z,0.00
2022-11-15T20:45:22.375Z,0.00
2022-11-15T20:46:22.430Z,0.00
2022-11-15T20:47:26.267Z,0.00
2022-11-15T20:48:23.331Z,0.00
2022-11-15T20:49:22.261Z,0.00
2022-11-15T20:50:41.443Z,0.00
2022-11-15T20:51:24.349Z,0.00
2022-11-15T20:52:22.405Z,0.00
2022-11-15T20:53:22.301Z,0.00
2022-11-15T20:54:22.353Z,0.00
2022-11-15T20:55:22.297Z,0.00
2022-11-15T20:56:22.134Z,0.00
2022-11-15T20:57:21.997Z,0.00
2022-11-15T20:58:22.082Z,0.00
2022-11-15T20:59:22.041Z,0.00
2022-11-15T21:00:22.221Z,0.00
2022-11-15T21:01:22.495Z,0.00
2022-11-15T21:02:22.377Z,0.00
2022-11-15T21:03:23.209Z,0.00
2022-11-15T21:04:21.987Z,0.00
2022-11-15T21:05:22.244Z,0.00
2022-11-15T21:06:22.156Z,0.00
2022-11-15T21:07:22.523Z,0.00
2022-11-15T21:08:22.323Z,0.00
2022-11-15T21:09:22.220Z,0.00
2022-11-15T21:10:22.144Z,0.00
2022-11-15T21:11:22.269Z,0.00
2022-11-15T21:12:22.456Z,0.00
2022-11-15T21:13:22.293Z,0.00
2022-11-15T21:14:22.285Z,0.00
2022-11-15T21:15:22.324Z,0.00
2022-11-15T21:16:22.205Z,0.00
2022-11-15T21:17:22.217Z,0.00
2022-11-15T21:18:22.285Z,0.00
2022-11-15T21:19:27.825Z,0.00
2022-11-15T21:20:24.164Z,0.00
2022-11-15T21:21:21.943Z,0.00
2022-11-15T21:22:22.052Z,0.00
2022-11-15T21:23:21.998Z,0.00
2022-11-15T21:24:21.782Z,0.00